Time;durP1;ratioP1;P1;durP2;ratioP2;P2;SDS_P1;SDS_P2;PMS_P1;PMS_P2;Temp;Humidity;BMP_temperature;BMP_pressure;BME280_temperature;BME280_humidity;BME280_pressure;Samples;Min_cycle;Max_cycle;Signal;HPM_P1;HPM_P2
2022/12/11 00:02:12;;;;;;;;;34.67;24.33;;;;;;;;5120271;27;45755;-64
2022/12/11 00:04:37;;;;;;;;;34.67;24.67;;;;;;;;5120108;27;45376;-64
2022/12/11 00:07:02;;;;;;;;;27.67;23.33;;;;;;;;5120065;27;45360;-64
2022/12/11 00:09:27;;;;;;;;;37.67;27.33;;;;;;;;5120046;27;45496;-65
2022/12/11 00:11:53;;;;;;;;;38.67;28.67;;;;;;;;5120214;27;45410;-65
2022/12/11 00:14:18;;;;;;;;;44.33;30.67;;;;;;;;5120191;27;45511;-65
2022/12/11 00:16:43;;;;;;;;;41.33;29.00;;;;;;;;5120019;27;45528;-65
2022/12/11 00:19:08;;;;;;;;;38.33;25.00;;;;;;;;5119995;27;45389;-65
2022/12/11 00:21:34;;;;;;;;;30.67;26.33;;;;;;;;5119839;27;45451;-65
2022/12/11 00:23:59;;;;;;;;;44.00;33.33;;;;;;;;5120364;27;45382;-65
2022/12/11 00:26:24;;;;;;;;;39.33;34.00;;;;;;;;5119102;27;45406;-65
2022/12/11 00:28:54;;;;;;;;;32.00;24.33;;;;;;;;5118950;27;45397;-65
2022/12/11 00:31:19;;;;;;;;;31.33;28.67;;;;;;;;5119849;27;45434;-64
2022/12/11 00:33:45;;;;;;;;;28.33;22.00;;;;;;;;5119525;27;45412;-64
2022/12/11 00:36:20;;;;;;;;;37.00;26.33;;;;;;;;5119568;27;45439;-64
2022/12/11 00:38:45;;;;;;;;;36.33;29.00;;;;;;;;5119618;27;45488;-64
2022/12/11 00:41:11;;;;;;;;;35.33;29.67;;;;;;;;5119670;27;45418;-64
2022/12/11 00:43:36;;;;;;;;;38.33;29.00;;;;;;;;5119852;27;45358;-64
2022/12/11 00:46:02;;;;;;;;;36.00;26.33;;;;;;;;5119357;27;45444;-64
2022/12/11 00:48:27;;;;;;;;;38.67;29.33;;;;;;;;5119336;27;45253;-64
2022/12/11 00:50:52;;;;;;;;;32.33;26.00;;;;;;;;5119372;27;45411;-64
2022/12/11 00:53:18;;;;;;;;;35.67;24.67;;;;;;;;5119724;27;45375;-63
2022/12/11 00:55:43;;;;;;;;;33.33;28.33;;;;;;;;5119322;27;45702;-63
2022/12/11 00:58:09;;;;;;;;;46.67;30.67;;;;;;;;5119282;27;45397;-63
2022/12/11 01:00:34;;;;;;;;;39.67;34.33;;;;;;;;5119217;27;45420;-63
2022/12/11 01:03:00;;;;;;;;;36.67;28.33;;;;;;;;5119298;27;45366;-63
2022/12/11 01:05:25;;;;;;;;;45.33;32.67;;;;;;;;5118801;27;46439;-63
2022/12/11 01:07:50;;;;;;;;;33.67;24.67;;;;;;;;5119071;27;45519;-64
2022/12/11 01:10:25;;;;;;;;;38.00;21.67;;;;;;;;5119028;27;45418;-64
2022/12/11 01:12:50;;;;;;;;;43.67;32.00;;;;;;;;5119023;27;45390;-64
2022/12/11 01:15:15;;;;;;;;;37.33;32.00;;;;;;;;5118877;27;47130;-64
2022/12/11 01:17:40;;;;;;;;;38.67;30.33;;;;;;;;5118864;27;45526;-64
2022/12/11 01:20:06;;;;;;;;;41.67;31.67;;;;;;;;5118940;27;45406;-63
2022/12/11 01:22:31;;;;;;;;;45.33;33.67;;;;;;;;5118975;27;45496;-64
2022/12/11 01:24:56;;;;;;;;;42.67;31.67;;;;;;;;5118653;27;45431;-63
2022/12/11 01:27:21;;;;;;;;;36.67;25.67;;;;;;;;5118780;27;45293;-63
2022/12/11 01:29:48;;;;;;;;;35.33;26.33;;;;;;;;5118943;27;45343;-63
2022/12/11 01:32:13;;;;;;;;;25.00;21.00;;;;;;;;5118812;27;45282;-63
2022/12/11 01:34:38;;;;;;;;;40.00;25.00;;;;;;;;5118416;27;46434;-63
2022/12/11 01:37:04;;;;;;;;;39.00;26.33;;;;;;;;5118666;27;45455;-63
2022/12/11 01:39:29;;;;;;;;;39.00;26.33;;;;;;;;5118426;27;45457;-63
2022/12/11 01:41:58;;;;;;;;;38.67;28.67;;;;;;;;5118804;27;45385;-63
2022/12/11 01:44:23;;;;;;;;;30.00;26.67;;;;;;;;5118312;27;46455;-63
2022/12/11 01:46:48;;;;;;;;;36.00;31.33;;;;;;;;5118289;27;45408;-63
2022/12/11 01:49:16;;;;;;;;;31.00;28.00;;;;;;;;5118499;27;45370;-63
2022/12/11 01:51:52;;;;;;;;;55.33;30.67;;;;;;;;5118331;27;45355;-63
2022/12/11 01:54:20;;;;;;;;;30.33;25.00;;;;;;;;5118242;27;45411;-64
2022/12/11 01:56:47;;;;;;;;;32.50;29.00;;;;;;;;5118163;27;45371;-64
2022/12/11 01:59:14;;;;;;;;;33.67;28.67;;;;;;;;5118266;27;45351;-65
2022/12/11 02:01:42;;;;;;;;;32.33;29.67;;;;;;;;5118139;27;45379;-65
2022/12/11 02:04:07;;;;;;;;;40.33;30.00;;;;;;;;5117949;27;46154;-65
2022/12/11 02:06:35;;;;;;;;;41.00;27.00;;;;;;;;5117990;27;45396;-64
2022/12/11 02:09:01;;;;;;;;;34.00;24.67;;;;;;;;5118182;27;45437;-64
2022/12/11 02:11:47;;;;;;;;;45.67;28.67;;;;;;;;5118103;27;45336;-64
2022/12/11 02:14:33;;;;;;;;;38.33;24.67;;;;;;;;5054282;28;45400;-64
2022/12/11 02:17:02;;;;;;;;;30.33;29.00;;;;;;;;5053716;28;45427;-64
2022/12/11 02:19:46;;;;;;;;;36.33;30.67;;;;;;;;5054297;28;45595;-64
2022/12/11 02:22:15;;;;;;;;;42.00;29.67;;;;;;;;5054196;28;45356;-64
2022/12/11 02:24:43;;;;;;;;;41.67;31.67;;;;;;;;5054100;28;46710;-64
2022/12/11 02:27:29;;;;;;;;;33.67;32.33;;;;;;;;5054324;28;45384;-64
2022/12/11 02:30:00;;;;;;;;;33.67;26.33;;;;;;;;5053851;28;45431;-64
2022/12/11 02:32:29;;;;;;;;;28.33;22.67;;;;;;;;5054218;28;45605;-64
2022/12/11 02:34:54;;;;;;;;;34.33;26.33;;;;;;;;5053896;28;45469;-64
2022/12/11 02:37:21;;;;;;;;;35.33;29.33;;;;;;;;5054008;28;45596;-64
2022/12/11 02:39:48;;;;;;;;;43.00;36.00;;;;;;;;5054491;28;45275;-62
2022/12/11 02:42:15;;;;;;;;;40.00;35.33;;;;;;;;5054508;28;45497;-62
2022/12/11 02:44:41;;;;;;;;;43.00;34.00;;;;;;;;5054125;28;45578;-63
2022/12/11 02:47:07;;;;;;;;;37.33;32.67;;;;;;;;5053875;28;45466;-63
2022/12/11 02:49:33;;;;;;;;;32.67;30.33;;;;;;;;5054278;28;45471;-63
2022/12/11 02:52:00;;;;;;;;;52.00;36.67;;;;;;;;5105946;27;45436;-63
2022/12/11 02:54:28;;;;;;;;;36.00;24.33;;;;;;;;5121280;27;45336;-63
2022/12/11 02:57:06;;;;;;;;;45.33;31.67;;;;;;;;5121054;27;45515;-66
2022/12/11 02:59:36;;;;;;;;;43.33;29.67;;;;;;;;5121080;27;45437;-66
2022/12/11 03:02:01;;;;;;;;;34.00;30.00;;;;;;;;5121017;27;45333;-66
2022/12/11 03:04:27;;;;;;;;;45.00;34.33;;;;;;;;5120905;27;46015;-66
2022/12/11 03:06:55;;;;;;;;;33.00;27.33;;;;;;;;5120803;27;45441;-65
2022/12/11 03:09:20;;;;;;;;;37.67;34.00;;;;;;;;5119475;27;45482;-66
2022/12/11 03:11:45;;;;;;;;;42.33;32.33;;;;;;;;5121101;27;45444;-66
2022/12/11 03:14:11;;;;;;;;;39.67;32.00;;;;;;;;5120655;27;46389;-65
2022/12/11 03:16:38;;;;;;;;;43.00;36.67;;;;;;;;5120882;27;45306;-65
2022/12/11 03:19:12;;;;;;;;;47.67;36.67;;;;;;;;5120817;27;45469;-64
2022/12/11 03:21:54;;;;;;;;;48.67;35.00;;;;;;;;5120529;27;45413;-64
2022/12/11 03:24:24;;;;;;;;;34.67;27.33;;;;;;;;5120272;27;46714;-65
2022/12/11 03:26:53;;;;;;;;;44.00;38.67;;;;;;;;5120647;27;45416;-65
2022/12/11 03:29:24;;;;;;;;;39.33;30.67;;;;;;;;5120502;27;45323;-65
2022/12/11 03:31:55;;;;;;;;;39.67;30.67;;;;;;;;5120624;27;45450;-65
2022/12/11 03:34:29;;;;;;;;;38.67;35.33;;;;;;;;5120295;27;45428;-64
2022/12/11 03:36:56;;;;;;;;;39.67;32.00;;;;;;;;5120109;27;45440;-64
2022/12/11 03:39:26;;;;;;;;;44.67;37.00;;;;;;;;5120272;27;45354;-64
2022/12/11 03:41:52;;;;;;;;;40.33;33.33;;;;;;;;5120801;27;45383;-64
2022/12/11 03:44:19;;;;;;;;;38.33;26.33;;;;;;;;5120089;27;45859;-64
2022/12/11 03:46:45;;;;;;;;;46.00;31.33;;;;;;;;5120212;27;45283;-65
2022/12/11 03:49:14;;;;;;;;;42.33;30.33;;;;;;;;5120360;27;45424;-65
2022/12/11 03:51:41;;;;;;;;;37.67;23.00;;;;;;;;5120341;27;45363;-65
2022/12/11 03:54:06;;;;;;;;;44.33;36.67;;;;;;;;5120003;27;47212;-65
2022/12/11 03:56:34;;;;;;;;;40.67;29.67;;;;;;;;5120099;27;45437;-65
2022/12/11 03:58:59;;;;;;;;;41.00;32.67;;;;;;;;5120296;27;45396;-65
2022/12/11 04:01:25;;;;;;;;;41.00;26.33;;;;;;;;5120080;27;45439;-65
2022/12/11 04:03:50;;;;;;;;;39.00;33.33;;;;;;;;5119966;27;45634;-64
2022/12/11 04:06:15;;;;;;;;;41.33;31.33;;;;;;;;5119978;27;45457;-64
2022/12/11 04:08:40;;;;;;;;;44.67;32.67;;;;;;;;5119320;27;45513;-65
2022/12/11 04:16:37;;;;;;;;;38.00;28.67;;;;;;;;5076345;28;45428;-63
2022/12/11 04:24:31;;;;;;;;;39.33;31.67;;;;;;;;5074446;28;45782;-65
2022/12/11 04:26:56;;;;;;;;;36.00;23.00;;;;;;;;5075532;28;45396;-65
2022/12/11 04:29:22;;;;;;;;;39.33;34.00;;;;;;;;5075911;28;45526;-65
2022/12/11 04:31:47;;;;;;;;;42.00;31.00;;;;;;;;5075686;28;45577;-66
2022/12/11 04:34:12;;;;;;;;;39.33;28.00;;;;;;;;5075740;28;45351;-65
2022/12/11 04:36:37;;;;;;;;;43.33;31.00;;;;;;;;5075219;28;45452;-65
2022/12/11 04:39:03;;;;;;;;;44.00;36.33;;;;;;;;5075541;28;45360;-64
2022/12/11 04:41:28;;;;;;;;;50.67;37.67;;;;;;;;5075821;27;45432;-65
2022/12/11 04:43:54;;;;;;;;;48.33;35.67;;;;;;;;5075190;28;46515;-65
2022/12/11 04:46:20;;;;;;;;;50.33;37.67;;;;;;;;5075403;28;45528;-65
2022/12/11 04:48:46;;;;;;;;;50.33;35.00;;;;;;;;5075376;28;45525;-65
2022/12/11 04:51:11;;;;;;;;;37.33;33.33;;;;;;;;5101937;27;45379;-65
2022/12/11 04:53:37;;;;;;;;;46.67;34.00;;;;;;;;5118326;27;46079;-64
2022/12/11 04:56:09;;;;;;;;;38.33;32.67;;;;;;;;5118919;27;45243;-65
2022/12/11 04:58:34;;;;;;;;;49.67;34.67;;;;;;;;5118773;27;45399;-65
2022/12/11 05:01:00;;;;;;;;;37.00;29.67;;;;;;;;5118732;27;45523;-65
2022/12/11 05:03:25;;;;;;;;;45.00;37.67;;;;;;;;5118485;27;46373;-65
2022/12/11 05:05:51;;;;;;;;;50.00;37.67;;;;;;;;5118539;27;45461;-65
2022/12/11 05:08:18;;;;;;;;;43.00;28.00;;;;;;;;5117723;27;45500;-65
2022/12/11 05:10:43;;;;;;;;;39.00;37.67;;;;;;;;5118740;27;45282;-65
2022/12/11 05:13:08;;;;;;;;;43.00;35.67;;;;;;;;5117319;27;45425;-65
2022/12/11 05:15:34;;;;;;;;;44.67;33.00;;;;;;;;5118186;27;45477;-65
2022/12/11 05:17:59;;;;;;;;;42.33;34.33;;;;;;;;5118260;27;45409;-63
2022/12/11 05:20:24;;;;;;;;;48.33;36.00;;;;;;;;5118367;27;45191;-63
2022/12/11 05:22:49;;;;;;;;;42.33;31.00;;;;;;;;5117853;27;45586;-63
2022/12/11 05:25:14;;;;;;;;;39.33;32.00;;;;;;;;5117930;27;45623;-63
2022/12/11 05:27:40;;;;;;;;;47.33;33.33;;;;;;;;5118000;27;45470;-63
2022/12/11 05:30:05;;;;;;;;;35.33;30.00;;;;;;;;5118538;27;45398;-62
2022/12/11 05:32:30;;;;;;;;;45.67;34.00;;;;;;;;5117731;27;46624;-63
2022/12/11 05:34:56;;;;;;;;;39.00;28.00;;;;;;;;5117870;27;45359;-63
2022/12/11 05:37:21;;;;;;;;;40.00;30.00;;;;;;;;5117826;27;45365;-63
2022/12/11 05:39:46;;;;;;;;;38.33;34.67;;;;;;;;5118233;27;45419;-63
2022/12/11 05:42:11;;;;;;;;;34.33;34.33;;;;;;;;5117983;27;45409;-62
2022/12/11 05:44:37;;;;;;;;;42.67;33.67;;;;;;;;5117846;27;45428;-63
2022/12/11 05:47:02;;;;;;;;;47.00;31.67;;;;;;;;5117934;27;45367;-63
2022/12/11 05:49:27;;;;;;;;;27.33;26.33;;;;;;;;5118134;27;45460;-62
2022/12/11 05:51:52;;;;;;;;;45.33;35.00;;;;;;;;5117438;27;45460;-62
2022/12/11 05:54:17;;;;;;;;;47.67;34.33;;;;;;;;5117838;27;45435;-63
2022/12/11 05:56:43;;;;;;;;;44.00;35.00;;;;;;;;5115054;27;45338;-63
2022/12/11 05:59:08;;;;;;;;;55.00;35.67;;;;;;;;5118068;27;45306;-63
2022/12/11 06:01:35;;;;;;;;;41.00;34.00;;;;;;;;5118103;27;46681;-63
2022/12/11 06:04:01;;;;;;;;;60.67;41.00;;;;;;;;5118115;27;45251;-63
2022/12/11 06:06:26;;;;;;;;;50.67;39.33;;;;;;;;5118322;27;45439;-63
2022/12/11 06:08:52;;;;;;;;;46.00;30.00;;;;;;;;5118152;27;45489;-63
2022/12/11 06:11:17;;;;;;;;;53.33;37.67;;;;;;;;5117955;27;45790;-63
2022/12/11 06:13:43;;;;;;;;;48.67;34.33;;;;;;;;5118233;27;45308;-63
2022/12/11 06:16:08;;;;;;;;;48.00;37.00;;;;;;;;5117965;27;45752;-63
2022/12/11 06:18:35;;;;;;;;;57.00;38.00;;;;;;;;5118411;27;45289;-63
2022/12/11 06:21:00;;;;;;;;;35.67;24.67;;;;;;;;5117774;27;46237;-63
2022/12/11 06:23:25;;;;;;;;;37.67;32.33;;;;;;;;5117680;27;45389;-63
2022/12/11 06:25:51;;;;;;;;;45.33;35.67;;;;;;;;5120952;27;45415;-63
2022/12/11 06:28:16;;;;;;;;;47.33;37.00;;;;;;;;5121684;27;45444;-63
2022/12/11 06:30:41;;;;;;;;;50.33;39.67;;;;;;;;5121537;27;46412;-63
2022/12/11 06:33:06;;;;;;;;;61.00;40.33;;;;;;;;5121250;27;45325;-63
2022/12/11 06:35:32;;;;;;;;;44.33;38.33;;;;;;;;5121688;27;45326;-63
2022/12/11 06:37:58;;;;;;;;;38.00;36.67;;;;;;;;5121617;27;45944;-63
2022/12/11 06:40:23;;;;;;;;;46.00;33.33;;;;;;;;5121060;27;46189;-63
2022/12/11 06:42:48;;;;;;;;;48.00;40.67;;;;;;;;5121364;27;45459;-63
2022/12/11 06:45:13;;;;;;;;;60.33;39.33;;;;;;;;5121377;27;45451;-63
2022/12/11 06:47:38;;;;;;;;;60.00;41.67;;;;;;;;5121486;27;45383;-63
2022/12/11 06:50:04;;;;;;;;;52.67;31.67;;;;;;;;5120963;27;46542;-63
2022/12/11 06:52:29;;;;;;;;;63.67;44.67;;;;;;;;5121213;27;45493;-63
2022/12/11 06:54:54;;;;;;;;;57.00;42.33;;;;;;;;5121148;27;45396;-63
2022/12/11 06:57:20;;;;;;;;;57.00;41.33;;;;;;;;5121248;27;45461;-63
2022/12/11 06:59:45;;;;;;;;;52.33;39.00;;;;;;;;5121072;27;46360;-63
2022/12/11 07:02:14;;;;;;;;;52.00;40.33;;;;;;;;5121025;27;45338;-63
2022/12/11 07:04:40;;;;;;;;;62.00;42.00;;;;;;;;5121011;27;45351;-63
2022/12/11 07:07:06;;;;;;;;;52.33;39.33;;;;;;;;5121305;27;45557;-63
2022/12/11 07:09:31;;;;;;;;;56.00;42.33;;;;;;;;5120661;27;46510;-63
2022/12/11 07:11:57;;;;;;;;;48.00;37.67;;;;;;;;5120726;27;45360;-63
2022/12/11 07:14:22;;;;;;;;;59.33;40.67;;;;;;;;5120796;27;45470;-63
2022/12/11 07:16:47;;;;;;;;;58.33;42.33;;;;;;;;5121082;27;45535;-63
2022/12/11 07:19:12;;;;;;;;;54.67;39.00;;;;;;;;5120693;27;46561;-63
2022/12/11 07:21:37;;;;;;;;;61.00;38.67;;;;;;;;5119015;27;45888;-63
2022/12/11 07:24:03;;;;;;;;;48.67;39.00;;;;;;;;5120769;27;45343;-63
2022/12/11 07:26:28;;;;;;;;;45.67;40.00;;;;;;;;5120930;27;45431;-63
2022/12/11 07:28:55;;;;;;;;;46.33;34.33;;;;;;;;5120555;27;46677;-63
2022/12/11 07:31:21;;;;;;;;;59.67;38.33;;;;;;;;5120417;27;45378;-63
2022/12/11 07:33:51;;;;;;;;;51.00;38.67;;;;;;;;5120462;27;45363;-63
2022/12/11 07:36:16;;;;;;;;;50.33;35.00;;;;;;;;5120259;27;45518;-63
2022/12/11 07:38:41;;;;;;;;;45.33;37.00;;;;;;;;5120003;27;45440;-64
2022/12/11 07:41:09;;;;;;;;;47.33;36.00;;;;;;;;5120476;27;45597;-63
2022/12/11 07:43:35;;;;;;;;;47.67;36.67;;;;;;;;5120713;27;45478;-64
2022/12/11 07:46:01;;;;;;;;;52.33;39.67;;;;;;;;5120705;27;45364;-64
2022/12/11 07:48:26;;;;;;;;;57.67;43.33;;;;;;;;5120268;27;46953;-63
2022/12/11 07:50:51;;;;;;;;;49.33;41.00;;;;;;;;5120157;27;45198;-64
2022/12/11 07:53:17;;;;;;;;;50.67;40.33;;;;;;;;5120057;27;47124;-63
2022/12/11 07:55:42;;;;;;;;;51.67;40.33;;;;;;;;5120359;27;45517;-63
2022/12/11 07:58:07;;;;;;;;;53.00;42.00;;;;;;;;5120109;27;46336;-64
2022/12/11 08:00:32;;;;;;;;;56.00;41.33;;;;;;;;5120170;27;45453;-64
2022/12/11 08:02:57;;;;;;;;;53.00;33.67;;;;;;;;5120300;27;45413;-64
2022/12/11 08:05:23;;;;;;;;;38.67;27.33;;;;;;;;5119998;27;45603;-65
2022/12/11 08:07:48;;;;;;;;;57.33;43.67;;;;;;;;5119970;27;46249;-64
2022/12/11 08:10:13;;;;;;;;;54.33;43.33;;;;;;;;5119872;27;45444;-64
2022/12/11 08:12:39;;;;;;;;;49.67;43.00;;;;;;;;5120121;27;45385;-64
2022/12/11 08:15:04;;;;;;;;;53.33;42.00;;;;;;;;5120186;27;45468;-64
2022/12/11 08:17:29;;;;;;;;;63.33;41.33;;;;;;;;5119701;27;45696;-64
2022/12/11 08:19:54;;;;;;;;;60.67;42.33;;;;;;;;5119929;27;45157;-64
2022/12/11 08:22:20;;;;;;;;;62.67;48.33;;;;;;;;5119846;27;45421;-64
2022/12/11 08:24:45;;;;;;;;;53.33;40.00;;;;;;;;5119935;27;45332;-64
2022/12/11 08:27:11;;;;;;;;;50.33;41.00;;;;;;;;5119567;27;47250;-64
2022/12/11 08:29:36;;;;;;;;;52.00;42.67;;;;;;;;5119813;27;45365;-64
2022/12/11 08:32:01;;;;;;;;;60.67;41.33;;;;;;;;5119726;27;45407;-64
2022/12/11 08:34:26;;;;;;;;;63.67;46.33;;;;;;;;5119780;27;45450;-65
2022/12/11 08:36:51;;;;;;;;;59.67;44.67;;;;;;;;5119547;27;46724;-64
2022/12/11 08:39:17;;;;;;;;;56.33;43.00;;;;;;;;5119403;27;45351;-64
2022/12/11 08:41:42;;;;;;;;;46.67;38.67;;;;;;;;5119485;27;45307;-64
2022/12/11 08:44:10;;;;;;;;;58.33;44.00;;;;;;;;5119755;27;45452;-64
2022/12/11 08:46:36;;;;;;;;;49.00;39.00;;;;;;;;5119387;27;45607;-64
2022/12/11 08:49:01;;;;;;;;;67.00;49.67;;;;;;;;5117692;27;45346;-64
2022/12/11 08:51:27;;;;;;;;;69.67;47.67;;;;;;;;5118699;27;45443;-64
2022/12/11 08:53:56;;;;;;;;;59.67;45.00;;;;;;;;5119415;27;45382;-64
2022/12/11 08:56:22;;;;;;;;;49.33;42.67;;;;;;;;5118805;27;45519;-64
2022/12/11 08:58:48;;;;;;;;;58.00;42.67;;;;;;;;5118573;27;45735;-64
2022/12/11 09:01:20;;;;;;;;;69.67;49.33;;;;;;;;5118933;27;45479;-63
2022/12/11 09:03:45;;;;;;;;;66.33;42.67;;;;;;;;5118810;27;45563;-65
2022/12/11 09:06:12;;;;;;;;;58.33;45.67;;;;;;;;5118123;27;47318;-64
2022/12/11 09:08:38;;;;;;;;;61.67;42.00;;;;;;;;5118684;27;45473;-64
2022/12/11 09:11:07;;;;;;;;;58.67;42.67;;;;;;;;5118452;27;45328;-64
2022/12/11 09:13:32;;;;;;;;;61.33;46.67;;;;;;;;5118586;27;45267;-66
2022/12/11 09:15:58;;;;;;;;;54.33;43.67;;;;;;;;5118367;27;46479;-63
2022/12/11 09:18:23;;;;;;;;;64.67;42.00;;;;;;;;5118028;27;45202;-66
2022/12/11 09:20:56;;;;;;;;;70.67;46.33;;;;;;;;5118526;27;45374;-65
2022/12/11 09:23:21;;;;;;;;;54.67;44.67;;;;;;;;5118271;27;45537;-66
2022/12/11 09:25:46;;;;;;;;;53.00;41.33;;;;;;;;5117711;27;46520;-66
2022/12/11 09:28:12;;;;;;;;;59.00;44.00;;;;;;;;5118079;27;45481;-64
2022/12/11 09:30:37;;;;;;;;;59.67;42.33;;;;;;;;5118089;27;45363;-64
2022/12/11 09:33:02;;;;;;;;;55.00;40.67;;;;;;;;5118373;27;45610;-65
2022/12/11 09:35:27;;;;;;;;;60.33;44.33;;;;;;;;5118105;27;45739;-65
2022/12/11 09:37:53;;;;;;;;;63.67;46.67;;;;;;;;5117825;27;45553;-65
2022/12/11 09:40:18;;;;;;;;;57.67;41.00;;;;;;;;5117886;27;45499;-64
2022/12/11 09:42:49;;;;;;;;;58.67;42.00;;;;;;;;5117976;27;45419;-64
2022/12/11 09:45:14;;;;;;;;;63.00;46.33;;;;;;;;5118129;27;45605;-67
2022/12/11 09:47:41;;;;;;;;;60.33;42.33;;;;;;;;5117662;27;45419;-66
2022/12/11 09:50:10;;;;;;;;;57.00;42.67;;;;;;;;5118226;27;45389;-65
2022/12/11 09:52:41;;;;;;;;;49.00;38.67;;;;;;;;5118133;27;45528;-66
2022/12/11 09:55:18;;;;;;;;;52.33;42.00;;;;;;;;5118134;27;45515;-65
2022/12/11 09:57:46;;;;;;;;;57.00;40.33;;;;;;;;5118038;27;45187;-65
2022/12/11 10:00:19;;;;;;;;;65.33;46.67;;;;;;;;5118038;27;45417;-64
2022/12/11 10:02:47;;;;;;;;;59.67;46.33;;;;;;;;5118480;27;45504;-62
2022/12/11 10:05:13;;;;;;;;;39.00;30.33;;;;;;;;5117799;27;46251;-65
2022/12/11 10:07:44;;;;;;;;;49.33;41.33;;;;;;;;5118027;27;45669;-64
2022/12/11 10:10:09;;;;;;;;;52.33;41.00;;;;;;;;5118156;27;45465;-65
2022/12/11 10:12:41;;;;;;;;;58.33;43.33;;;;;;;;5107502;27;45338;-60
2022/12/11 10:15:21;;;;;;;;;57.33;40.00;;;;;;;;5106252;27;45503;-60
2022/12/11 10:17:46;;;;;;;;;70.00;49.33;;;;;;;;5115002;27;45380;-60
2022/12/11 10:20:15;;;;;;;;;54.00;38.67;;;;;;;;5117054;27;45363;-60
2022/12/11 10:22:41;;;;;;;;;42.33;35.00;;;;;;;;5117460;27;45716;-60
2022/12/11 10:25:16;;;;;;;;;46.33;32.67;;;;;;;;5117806;27;47349;-61
2022/12/11 10:27:42;;;;;;;;;57.67;43.33;;;;;;;;5117416;27;45385;-60
2022/12/11 10:30:21;;;;;;;;;48.33;42.33;;;;;;;;5116088;27;45817;-61
2022/12/11 10:32:51;;;;;;;;;54.33;42.00;;;;;;;;5120097;27;45383;-62
2022/12/11 10:35:19;;;;;;;;;55.00;37.00;;;;;;;;5108779;27;46281;-63
2022/12/11 10:37:44;;;;;;;;;57.67;41.00;;;;;;;;5115011;27;45420;-63
2022/12/11 10:40:10;;;;;;;;;44.33;32.67;;;;;;;;5115424;27;45503;-64
2022/12/11 10:42:35;;;;;;;;;40.33;33.00;;;;;;;;5115344;27;45531;-62
2022/12/11 10:45:02;;;;;;;;;38.00;31.67;;;;;;;;5114443;27;45369;-62
2022/12/11 10:47:27;;;;;;;;;45.00;32.33;;;;;;;;5116941;27;45351;-61
2022/12/11 10:49:55;;;;;;;;;47.00;37.00;;;;;;;;5107138;27;45441;-61
2022/12/11 10:52:31;;;;;;;;;35.33;26.00;;;;;;;;5117604;27;45552;-61
2022/12/11 10:54:59;;;;;;;;;52.00;36.00;;;;;;;;5130706;27;46450;-61
2022/12/11 10:57:28;;;;;;;;;42.67;31.00;;;;;;;;5101475;27;46706;-61
2022/12/11 10:59:54;;;;;;;;;52.33;34.33;;;;;;;;5116147;27;45386;-62
2022/12/11 11:02:39;;;;;;;;;45.00;37.67;;;;;;;;5104335;27;45315;-62
2022/12/11 11:05:30;;;;;;;;;42.67;31.00;;;;;;;;5124019;27;47248;-62
2022/12/11 11:08:09;;;;;;;;;52.67;38.33;;;;;;;;5094685;27;45595;-63
2022/12/11 11:10:35;;;;;;;;;42.67;32.67;;;;;;;;5096286;27;45384;-63
2022/12/11 11:13:00;;;;;;;;;41.33;34.00;;;;;;;;5098981;27;45497;-63
2022/12/11 11:15:27;;;;;;;;;45.67;29.00;;;;;;;;5102591;27;46598;-62
2022/12/11 11:17:59;;;;;;;;;36.67;29.00;;;;;;;;5119366;27;45890;-62
2022/12/11 11:20:29;;;;;;;;;35.33;31.00;;;;;;;;5116057;27;45475;-62
2022/12/11 11:22:56;;;;;;;;;46.33;33.67;;;;;;;;5132164;27;45646;-62
2022/12/11 11:25:23;;;;;;;;;45.33;34.67;;;;;;;;5114604;27;46347;-62
2022/12/11 11:27:54;;;;;;;;;43.00;32.33;;;;;;;;5106378;27;45492;-62
2022/12/11 11:30:26;;;;;;;;;36.33;31.00;;;;;;;;5109443;27;45478;-63
2022/12/11 11:32:56;;;;;;;;;43.00;35.67;;;;;;;;5114531;27;45424;-63
2022/12/11 11:35:24;;;;;;;;;37.00;28.33;;;;;;;;5118238;27;46546;-64
2022/12/11 11:37:56;;;;;;;;;40.00;31.33;;;;;;;;5097907;27;45443;-61
2022/12/11 11:40:25;;;;;;;;;45.00;26.00;;;;;;;;5100597;27;45818;-65
2022/12/11 11:42:55;;;;;;;;;40.00;32.67;;;;;;;;5112209;27;45366;-65
2022/12/11 11:45:25;;;;;;;;;40.67;31.00;;;;;;;;5113524;27;46243;-65
2022/12/11 11:48:26;;;;;;;;;39.67;29.67;;;;;;;;5115656;27;45408;-65
2022/12/11 11:50:52;;;;;;;;;44.00;35.33;;;;;;;;5076164;28;45512;-66
2022/12/11 11:53:36;;;;;;;;;39.00;33.00;;;;;;;;5068056;28;45587;-64
2022/12/11 11:56:16;;;;;;;;;36.00;28.00;;;;;;;;5055617;28;45405;-64
2022/12/11 11:58:49;;;;;;;;;44.33;28.00;;;;;;;;5055622;28;45412;-65
2022/12/11 12:01:16;;;;;;;;;32.00;28.67;;;;;;;;5055707;28;45464;-64
2022/12/11 12:03:41;;;;;;;;;34.33;28.00;;;;;;;;5064255;28;45492;-63
2022/12/11 12:06:15;;;;;;;;;45.33;30.00;;;;;;;;5075617;28;45365;-63
2022/12/11 12:08:58;;;;;;;;;37.67;25.33;;;;;;;;5072229;28;45443;-63
2022/12/11 12:11:29;;;;;;;;;47.33;37.67;;;;;;;;5075815;28;45514;-64
2022/12/11 12:13:54;;;;;;;;;35.67;26.00;;;;;;;;5062722;28;45637;-66
2022/12/11 12:16:42;;;;;;;;;41.67;35.67;;;;;;;;5061668;28;45751;-64
2022/12/11 12:19:07;;;;;;;;;43.33;34.33;;;;;;;;5067923;27;45488;-64
2022/12/11 12:21:34;;;;;;;;;37.33;23.00;;;;;;;;5079547;27;45494;-64
2022/12/11 12:23:59;;;;;;;;;28.33;20.33;;;;;;;;5081932;27;45364;-63
2022/12/11 12:26:24;;;;;;;;;25.67;23.33;;;;;;;;5118954;27;46724;-63
2022/12/11 12:28:53;;;;;;;;;31.67;25.00;;;;;;;;5118823;27;45413;-61
2022/12/11 12:31:39;;;;;;;;;26.33;20.33;;;;;;;;5118655;27;45401;-64
2022/12/11 12:34:14;;;;;;;;;36.00;27.00;;;;;;;;5119523;27;45408;-64
2022/12/11 12:36:53;;;;;;;;;38.67;30.67;;;;;;;;5115705;27;45500;-64
2022/12/11 12:39:21;;;;;;;;;36.00;24.67;;;;;;;;5107038;27;45378;-64
2022/12/11 12:41:49;;;;;;;;;31.67;27.00;;;;;;;;5102411;27;45722;-64
2022/12/11 12:44:16;;;;;;;;;21.00;19.33;;;;;;;;5114909;27;45326;-63
2022/12/11 12:46:56;;;;;;;;;27.67;22.67;;;;;;;;5118521;27;45599;-64
2022/12/11 12:49:39;;;;;;;;;28.67;26.00;;;;;;;;5118694;27;45390;-65
2022/12/11 12:52:06;;;;;;;;;36.67;29.33;;;;;;;;5118607;27;45466;-64
2022/12/11 12:54:32;;;;;;;;;24.33;21.33;;;;;;;;5130750;27;45396;-63
2022/12/11 12:56:59;;;;;;;;;33.00;24.00;;;;;;;;5117694;27;46616;-63
2022/12/11 12:59:25;;;;;;;;;39.33;27.33;;;;;;;;5129526;27;45578;-63
2022/12/11 13:01:55;;;;;;;;;31.67;25.00;;;;;;;;5129636;27;45342;-63
2022/12/11 13:04:41;;;;;;;;;25.00;19.33;;;;;;;;5118726;27;45354;-63
2022/12/11 13:07:13;;;;;;;;;37.67;25.33;;;;;;;;5097530;27;47221;-63
2022/12/11 13:09:38;;;;;;;;;37.67;31.67;;;;;;;;5110545;27;45457;-63
2022/12/11 13:12:11;;;;;;;;;39.33;28.67;;;;;;;;5130870;27;45449;-63
2022/12/11 13:14:37;;;;;;;;;39.33;30.33;;;;;;;;5117880;27;45537;-64
2022/12/11 13:17:07;;;;;;;;;28.67;25.33;;;;;;;;5117980;27;45393;-65
2022/12/11 13:19:33;;;;;;;;;41.00;27.33;;;;;;;;5117764;27;45467;-65
2022/12/11 13:22:02;;;;;;;;;33.00;24.33;;;;;;;;5118145;27;45859;-65
2022/12/11 13:24:29;;;;;;;;;27.67;24.33;;;;;;;;5118810;27;45425;-63
2022/12/11 13:26:55;;;;;;;;;36.33;24.67;;;;;;;;5117781;27;46332;-63
2022/12/11 13:29:36;;;;;;;;;30.67;23.67;;;;;;;;5132956;27;45523;-64
2022/12/11 13:32:18;;;;;;;;;31.67;23.67;;;;;;;;5131916;27;45543;-63
2022/12/11 13:34:50;;;;;;;;;31.00;25.33;;;;;;;;5125048;27;45734;-62
2022/12/11 13:37:35;;;;;;;;;36.67;34.33;;;;;;;;5120596;27;47570;-62
2022/12/11 13:40:21;;;;;;;;;30.00;20.67;;;;;;;;5116102;27;45383;-64
2022/12/11 13:42:49;;;;;;;;;25.33;20.33;;;;;;;;5119855;27;45303;-61
2022/12/11 13:45:20;;;;;;;;;26.00;17.33;;;;;;;;5117511;27;45387;-62
2022/12/11 13:47:46;;;;;;;;;26.33;15.00;;;;;;;;5118441;27;46670;-62
2022/12/11 13:50:15;;;;;;;;;24.67;22.33;;;;;;;;5117329;27;45405;-62
2022/12/11 13:52:40;;;;;;;;;24.00;23.33;;;;;;;;5118062;27;45401;-62
2022/12/11 13:55:15;;;;;;;;;21.00;20.33;;;;;;;;5117926;27;45396;-63
2022/12/11 13:57:44;;;;;;;;;34.33;23.00;;;;;;;;5117668;27;47372;-62
2022/12/11 14:00:21;;;;;;;;;30.00;23.67;;;;;;;;5122017;27;45414;-62
2022/12/11 14:02:46;;;;;;;;;22.67;20.33;;;;;;;;5138935;27;45395;-64
2022/12/11 14:05:12;;;;;;;;;25.00;21.00;;;;;;;;5127986;27;45551;-61
2022/12/11 14:07:42;;;;;;;;;26.33;20.33;;;;;;;;5116469;27;45431;-62
2022/12/11 14:10:08;;;;;;;;;35.67;26.00;;;;;;;;5117688;27;45578;-61
2022/12/11 14:12:34;;;;;;;;;25.00;24.00;;;;;;;;5112798;27;45416;-61
2022/12/11 14:15:01;;;;;;;;;26.33;21.33;;;;;;;;5109393;27;45436;-61
2022/12/11 14:17:29;;;;;;;;;28.67;25.33;;;;;;;;5110100;27;46489;-61
2022/12/11 14:19:56;;;;;;;;;23.67;19.67;;;;;;;;5123264;27;45616;-61
2022/12/11 14:22:22;;;;;;;;;34.33;29.33;;;;;;;;5118930;27;45741;-62
2022/12/11 14:24:49;;;;;;;;;30.00;21.00;;;;;;;;5117208;27;45478;-62
2022/12/11 14:27:15;;;;;;;;;30.33;21.00;;;;;;;;5115477;27;46093;-63
2022/12/11 14:29:40;;;;;;;;;24.33;19.00;;;;;;;;5110695;27;45763;-63
2022/12/11 14:32:06;;;;;;;;;27.00;21.33;;;;;;;;5116586;27;45512;-63